Time;durP1;ratioP1;P1;durP2;ratioP2;P2;SDS_P1;SDS_P2;PMS_P1;PMS_P2;Temp;Humidity;BMP_temperature;BMP_pressure;BME280_temperature;BME280_humidity;BME280_pressure;Samples;Min_cycle;Max_cycle;Signal;HPM_P1;HPM_P2
2021/05/23 00:02:16;;;;;;;3.37;3.17;;;;;;;10.59;79.02;99725.94;5085858;28;20237;-76
2021/05/23 00:04:42;;;;;;;3.30;3.10;;;;;;;10.65;78.34;99723.16;5084954;28;20677;-77
2021/05/23 00:07:10;;;;;;;3.60;3.40;;;;;;;10.46;78.52;99725.44;5085152;28;20215;-76
2021/05/23 00:09:36;;;;;;;3.43;3.20;;;;;;;10.49;78.48;99722.75;5085847;28;20221;-76
2021/05/23 00:12:02;;;;;;;3.17;2.93;;;;;;;10.58;78.63;99726.00;5085843;28;20204;-76
2021/05/23 00:14:28;;;;;;;3.20;3.00;;;;;;;10.49;78.74;99730.59;5085077;28;20963;-76
2021/05/23 00:16:54;;;;;;;3.63;3.33;;;;;;;10.59;78.84;99727.72;5085794;28;20316;-77
2021/05/23 00:19:20;;;;;;;3.20;3.00;;;;;;;10.62;78.56;99735.44;5084644;28;20233;-77
2021/05/23 00:21:46;;;;;;;3.00;2.80;;;;;;;10.61;79.27;99734.59;5085143;28;20216;-76
2021/05/23 00:24:13;;;;;;;2.97;2.77;;;;;;;10.61;78.89;99731.97;5085497;28;20746;-77
2021/05/23 00:26:38;;;;;;;2.87;2.70;;;;;;;10.44;78.85;99736.84;5085639;28;20638;-77
2021/05/23 00:29:05;;;;;;;3.20;3.00;;;;;;;10.49;79.26;99735.81;5085329;28;20216;-77
2021/05/23 00:31:32;;;;;;;3.20;2.90;;;;;;;10.49;79.22;99742.78;5085633;28;20230;-77
2021/05/23 00:33:58;;;;;;;3.00;2.70;;;;;;;10.55;79.70;99742.59;5084035;28;20216;-77
2021/05/23 00:36:24;;;;;;;3.20;3.00;;;;;;;10.63;79.09;99737.16;5084972;28;20363;-77
2021/05/23 00:38:50;;;;;;;3.60;3.13;;;;;;;10.68;78.74;99738.72;5085339;28;20430;-77
2021/05/23 00:41:17;;;;;;;3.07;2.87;;;;;;;10.73;78.52;99734.19;5084551;28;20714;-77
2021/05/23 00:43:43;;;;;;;3.30;3.00;;;;;;;10.67;78.21;99729.19;5085138;28;20242;-77
2021/05/23 00:46:09;;;;;;;2.67;2.47;;;;;;;10.71;78.04;99735.16;5084350;28;20210;-77
2021/05/23 00:48:35;;;;;;;2.83;2.63;;;;;;;10.77;78.32;99734.97;5083937;28;20711;-78
2021/05/23 00:51:01;;;;;;;2.73;2.53;;;;;;;10.75;78.07;99733.31;5085080;28;20258;-78
2021/05/23 00:53:27;;;;;;;3.03;2.83;;;;;;;10.67;78.41;99734.41;5083746;28;20201;-76
2021/05/23 00:55:53;;;;;;;2.60;2.40;;;;;;;10.69;78.92;99731.75;5084640;28;21366;-77
2021/05/23 00:58:20;;;;;;;2.37;2.27;;;;;;;10.69;78.33;99726.53;5084536;28;20248;-77
2021/05/23 01:01:10;;;;;;;2.80;2.60;;;;;;;10.64;78.24;99723.19;5084437;28;20220;-76
2021/05/23 01:03:56;;;;;;;2.73;2.63;;;;;;;10.66;78.67;99732.69;5084363;28;20270;-77
2021/05/23 01:06:23;;;;;;;2.67;2.47;;;;;;;10.62;78.75;99728.44;5084583;28;20421;-76
2021/05/23 01:08:49;;;;;;;3.43;3.13;;;;;;;10.50;79.05;99731.44;5084589;28;20238;-76
2021/05/23 01:11:52;;;;;;;2.80;2.60;;;;;;;10.55;78.97;99732.16;5084222;28;20206;-77
2021/05/23 01:14:40;;;;;;;2.90;2.70;;;;;;;10.34;79.65;99734.50;5084207;28;20510;-76
2021/05/23 01:17:09;;;;;;;2.83;2.63;;;;;;;10.45;79.59;99728.13;5083937;28;21009;-77
2021/05/23 01:19:48;;;;;;;3.30;2.50;;;;;;;10.42;79.34;99736.03;5083512;28;20229;-76
2021/05/23 01:22:28;;;;;;;2.90;2.67;;;;;;;10.26;80.13;99739.06;5083999;28;20202;-75
2021/05/23 01:25:03;;;;;;;2.93;2.83;;;;;;;10.33;80.06;99739.78;5083521;28;20522;-77
2021/05/23 01:27:35;;;;;;;2.67;2.57;;;;;;;10.33;79.89;99735.41;5084605;28;20246;-76
2021/05/23 01:30:01;;;;;;;2.67;2.50;;;;;;;10.40;79.73;99741.28;5084250;28;20296;-77
2021/05/23 01:32:27;;;;;;;2.37;2.27;;;;;;;10.38;79.76;99737.03;5084455;28;20210;-76
2021/05/23 01:34:53;;;;;;;3.00;2.80;;;;;;;10.39;80.18;99741.34;5083212;28;20653;-76
2021/05/23 01:37:23;;;;;;;2.70;2.50;;;;;;;10.42;80.00;99728.22;5084063;28;20219;-77
2021/05/23 01:39:49;;;;;;;3.07;2.87;;;;;;;10.44;79.71;99732.47;5084792;28;20269;-77
2021/05/23 01:42:17;;;;;;;2.77;2.57;;;;;;;10.53;79.72;99733.97;5083903;28;20208;-77
2021/05/23 01:44:43;;;;;;;2.70;2.50;;;;;;;10.55;79.98;99739.16;5084057;28;20459;-76
2021/05/23 01:47:09;;;;;;;2.67;2.47;;;;;;;10.53;80.30;99736.56;5083738;28;20687;-77
2021/05/23 01:49:37;;;;;;;2.83;2.63;;;;;;;10.41;80.19;99734.34;5083253;28;20236;-77
2021/05/23 01:52:03;;;;;;;2.90;2.70;;;;;;;10.51;80.39;99741.00;5084225;28;20215;-77
2021/05/23 01:54:29;;;;;;;3.57;2.77;;;;;;;10.56;80.16;99738.22;5083974;28;20238;-78
2021/05/23 01:56:55;;;;;;;3.13;2.60;;;;;;;10.59;80.58;99740.75;5084794;28;20793;-77
2021/05/23 01:59:22;;;;;;;3.50;3.30;;;;;;;10.67;80.37;99736.16;5083506;28;20319;-77
2021/05/23 02:01:47;;;;;;;4.00;2.87;;;;;;;10.65;79.91;99735.34;5084587;28;20207;-78
2021/05/23 02:04:14;;;;;;;3.07;2.87;;;;;;;10.62;80.15;99738.88;5082828;28;20778;-77
2021/05/23 02:06:40;;;;;;;2.77;2.57;;;;;;;10.65;80.21;99740.56;5083852;28;20223;-77
2021/05/23 02:09:06;;;;;;;2.80;2.43;;;;;;;10.63;80.21;99739.75;5083884;28;20223;-77
2021/05/23 02:11:32;;;;;;;2.50;2.30;;;;;;;10.65;80.58;99730.13;5084068;28;20206;-78
2021/05/23 02:13:57;;;;;;;3.33;2.97;;;;;;;10.60;80.98;99735.47;5083345;28;20229;-77
2021/05/23 02:16:24;;;;;;;2.83;2.60;;;;;;;10.64;81.13;99726.66;5083403;28;20272;-77
2021/05/23 02:18:50;;;;;;;2.20;2.00;;;;;;;10.67;80.54;99725.72;5082937;28;20708;-76
2021/05/23 02:21:16;;;;;;;2.60;2.40;;;;;;;10.69;80.34;99734.34;5083845;28;20204;-77
2021/05/23 02:23:49;;;;;;;2.67;2.20;;;;;;;10.68;80.01;99728.28;5083109;28;20772;-77
2021/05/23 02:26:15;;;;;;;2.70;2.23;;;;;;;10.65;79.62;99728.38;5084398;28;20278;-77
2021/05/23 02:28:41;;;;;;;2.63;2.43;;;;;;;10.67;79.92;99728.31;5083469;28;20224;-76
2021/05/23 02:31:07;;;;;;;2.83;2.30;;;;;;;10.66;79.82;99726.59;5083570;28;20232;-77
2021/05/23 02:33:34;;;;;;;3.00;2.70;;;;;;;10.36;80.14;99728.41;5083542;28;20211;-76
2021/05/23 02:36:00;;;;;;;2.70;2.40;;;;;;;10.46;80.12;99732.44;5083456;28;20210;-77
2021/05/23 02:38:26;;;;;;;2.43;2.23;;;;;;;10.50;80.23;99734.03;5084435;28;20267;-77
2021/05/23 02:40:52;;;;;;;3.00;2.70;;;;;;;10.52;80.13;99733.13;5083597;28;20227;-77
2021/05/23 02:43:19;;;;;;;2.50;2.20;;;;;;;10.59;80.20;99730.31;5083455;28;20242;-76
2021/05/23 02:45:46;;;;;;;3.60;2.33;;;;;;;10.62;80.30;99725.00;5084278;28;20258;-77
2021/05/23 02:48:12;;;;;;;2.30;2.10;;;;;;;10.60;80.41;99732.84;5083188;28;20205;-77
2021/05/23 02:50:41;;;;;;;2.50;2.30;;;;;;;10.64;80.09;99731.88;5083345;28;20225;-78
2021/05/23 02:53:08;;;;;;;3.43;2.50;;;;;;;10.54;80.00;99738.28;5083158;28;20212;-76
2021/05/23 02:55:35;;;;;;;2.50;2.30;;;;;;;10.51;79.36;99730.56;5083906;28;20204;-78
2021/05/23 02:58:02;;;;;;;2.90;2.70;;;;;;;10.53;79.86;99732.22;5083723;28;20232;-78
2021/05/23 03:00:28;;;;;;;2.53;2.33;;;;;;;10.49;79.88;99737.56;5082989;28;20697;-76
2021/05/23 03:02:54;;;;;;;4.07;2.50;;;;;;;10.34;79.79;99731.88;5083129;28;20865;-77
2021/05/23 03:05:22;;;;;;;2.57;2.30;;;;;;;10.35;79.83;99735.38;5082287;28;20601;-76
2021/05/23 03:07:50;;;;;;;1.70;1.60;;;;;;;10.17;78.75;99751.50;5083444;28;20206;-77
2021/05/23 03:10:19;;;;;;;1.60;1.50;;;;;;;10.05;79.59;99750.09;5082942;28;20220;-76
2021/05/23 03:12:46;;;;;;;2.30;1.50;;;;;;;9.82;80.85;99742.91;5086451;28;20231;-76
2021/05/23 03:15:14;;;;;;;2.27;2.07;;;;;;;9.73;82.13;99751.81;5087026;28;20585;-76
2021/05/23 03:17:40;;;;;;;2.73;2.10;;;;;;;9.79;82.31;99758.63;5086588;28;20758;-77
2021/05/23 03:20:09;;;;;;;2.27;2.00;;;;;;;9.73;82.51;99765.72;5085644;28;20724;-76
2021/05/23 03:22:35;;;;;;;2.07;1.90;;;;;;;9.56;82.77;99767.91;5086594;28;20203;-75
2021/05/23 03:25:04;;;;;;;2.07;1.97;;;;;;;9.42;83.59;99777.84;5086665;28;20270;-77
2021/05/23 03:27:29;;;;;;;2.80;2.60;;;;;;;9.29;84.60;99777.25;5087621;28;20203;-77
2021/05/23 03:29:55;;;;;;;3.17;2.97;;;;;;;9.23;84.98;99787.84;5086387;28;20649;-77
2021/05/23 03:32:21;;;;;;;3.27;2.97;;;;;;;9.05;86.18;99792.56;5087092;28;20210;-77
2021/05/23 03:34:47;;;;;;;4.43;3.37;;;;;;;9.09;86.91;99795.97;5086045;28;20212;-77
2021/05/23 03:37:13;;;;;;;3.57;3.37;;;;;;;9.15;86.69;99803.63;5086527;28;20358;-77
2021/05/23 03:39:39;;;;;;;4.20;3.80;;;;;;;9.11;87.00;99802.00;5087075;28;20232;-78
2021/05/23 03:42:06;;;;;;;3.53;3.23;;;;;;;9.09;87.12;99812.44;5086778;28;20211;-77
2021/05/23 03:44:32;;;;;;;3.90;3.50;;;;;;;9.09;87.75;99803.78;5086699;28;21087;-77
2021/05/23 03:46:58;;;;;;;4.30;3.90;;;;;;;9.03;87.42;99807.38;5086884;28;20201;-77
2021/05/23 03:49:24;;;;;;;4.43;4.10;;;;;;;9.03;87.54;99816.94;5084909;28;20281;-78
2021/05/23 03:51:50;;;;;;;4.07;3.77;;;;;;;8.91;87.58;99818.06;5086521;28;20203;-78
2021/05/23 03:54:16;;;;;;;4.20;3.80;;;;;;;8.94;88.03;99828.44;5086920;28;20225;-77
2021/05/23 03:56:42;;;;;;;4.23;3.93;;;;;;;8.91;87.87;99834.53;5086930;28;20224;-76
2021/05/23 03:59:09;;;;;;;4.83;4.47;;;;;;;8.90;88.03;99831.97;5086805;28;20273;-77
2021/05/23 04:01:35;;;;;;;3.90;3.70;;;;;;;8.96;88.22;99831.84;5087345;28;20259;-78
2021/05/23 04:04:01;;;;;;;3.57;3.37;;;;;;;9.02;88.56;99836.91;5086241;28;20516;-77
2021/05/23 04:06:28;;;;;;;4.00;3.70;;;;;;;9.09;87.99;99835.88;5086877;28;20204;-77
2021/05/23 04:08:54;;;;;;;3.87;3.53;;;;;;;9.18;87.80;99837.44;5087154;28;20232;-78
2021/05/23 04:11:23;;;;;;;4.00;3.70;;;;;;;9.31;87.54;99844.03;5086581;28;20260;-77
2021/05/23 04:13:50;;;;;;;4.13;3.83;;;;;;;9.32;87.67;99835.34;5086265;28;20216;-78
2021/05/23 04:16:16;;;;;;;4.30;4.00;;;;;;;9.34;87.08;99848.34;5085489;28;20259;-78
2021/05/23 04:18:43;;;;;;;4.47;4.03;;;;;;;9.25;88.08;99848.53;5085291;28;20255;-77
2021/05/23 04:21:09;;;;;;;3.90;3.53;;;;;;;9.37;88.12;99855.22;5085610;28;20210;-78
2021/05/23 04:23:36;;;;;;;4.10;3.90;;;;;;;9.30;87.89;99851.91;5085510;28;20233;-77
2021/05/23 04:26:02;;;;;;;4.43;4.13;;;;;;;9.32;87.49;99847.53;5085974;28;20208;-77
2021/05/23 04:28:28;;;;;;;3.90;3.60;;;;;;;9.30;87.53;99855.38;5085305;28;20202;-77
2021/05/23 04:30:56;;;;;;;3.70;3.50;;;;;;;9.42;87.64;99854.22;5085784;28;20718;-78
2021/05/23 04:33:23;;;;;;;4.10;3.80;;;;;;;9.44;87.15;99862.84;5084862;28;20209;-78
2021/05/23 04:35:49;;;;;;;3.37;3.17;;;;;;;9.32;86.71;99858.78;5085615;28;20583;-78
2021/05/23 04:38:14;;;;;;;3.37;3.17;;;;;;;9.25;86.80;99874.59;5085890;28;20297;-77
2021/05/23 04:40:41;;;;;;;3.20;3.00;;;;;;;9.39;86.84;99869.91;5085142;28;20223;-76
2021/05/23 04:43:06;;;;;;;3.20;3.00;;;;;;;9.39;86.53;99876.88;5085564;28;20207;-78
2021/05/23 04:45:33;;;;;;;3.47;3.27;;;;;;;9.25;86.55;99883.25;5085745;28;20216;-78
2021/05/23 04:47:59;;;;;;;3.80;3.60;;;;;;;9.29;87.39;99884.03;5084262;28;20253;-76
2021/05/23 04:50:26;;;;;;;3.07;2.87;;;;;;;9.43;86.53;99884.56;5084808;28;20226;-78
2021/05/23 04:52:52;;;;;;;3.60;3.40;;;;;;;9.34;87.41;99885.66;5085164;28;20556;-78
2021/05/23 04:55:18;;;;;;;3.63;3.43;;;;;;;9.50;87.43;99891.38;5085763;28;20202;-77
2021/05/23 04:57:44;;;;;;;2.93;2.80;;;;;;;9.58;86.76;99898.16;5085266;28;20283;-77
2021/05/23 05:00:12;;;;;;;2.90;2.73;;;;;;;9.73;87.01;99903.84;5084884;28;20707;-78
2021/05/23 05:02:38;;;;;;;3.10;2.90;;;;;;;9.88;86.30;99902.63;5084851;28;20677;-78
2021/05/23 05:05:05;;;;;;;3.23;3.03;;;;;;;10.00;85.91;99905.81;5085127;28;20238;-78
2021/05/23 05:07:32;;;;;;;3.00;2.80;;;;;;;10.12;85.36;99908.09;5088277;28;20205;-79
2021/05/23 05:09:58;;;;;;;3.13;2.93;;;;;;;10.07;84.64;99915.22;5084166;28;20645;-77
2021/05/23 05:12:24;;;;;;;3.30;3.00;;;;;;;10.15;84.50;99921.09;5084611;28;20216;-77
2021/05/23 05:14:50;;;;;;;3.53;3.33;;;;;;;10.19;83.73;99916.63;5085399;28;20220;-77
2021/05/23 05:17:16;;;;;;;3.87;3.60;;;;;;;10.32;83.33;99926.72;5085177;28;21500;-77
2021/05/23 05:19:41;;;;;;;4.00;3.70;;;;;;;10.33;82.67;99931.06;5084581;28;20639;-78
2021/05/23 05:22:08;;;;;;;4.20;3.90;;;;;;;10.29;82.79;99926.78;5085105;28;20207;-76
2021/05/23 05:24:34;;;;;;;3.80;3.60;;;;;;;10.32;82.49;99933.69;5084421;28;20211;-78
2021/05/23 05:27:00;;;;;;;4.57;4.27;;;;;;;10.17;82.71;99940.16;5087995;28;20230;-78
2021/05/23 05:29:26;;;;;;;4.37;4.07;;;;;;;9.89;83.48;99942.56;5087799;28;20250;-77
2021/05/23 05:31:52;;;;;;;4.97;4.60;;;;;;;9.91;83.37;99946.00;5089181;28;20303;-78
2021/05/23 05:34:18;;;;;;;4.90;4.50;;;;;;;9.65;84.11;99944.88;5085976;28;20200;-76
2021/05/23 05:36:44;;;;;;;5.47;5.07;;;;;;;9.65;84.28;99954.44;5088407;28;20269;-76
2021/05/23 05:39:10;;;;;;;5.40;5.00;;;;;;;9.41;85.19;99958.44;5086485;28;20219;-77
2021/05/23 05:41:37;;;;;;;5.57;5.23;;;;;;;9.36;85.66;99960.31;5084280;28;20297;-76
2021/05/23 05:44:04;;;;;;;6.30;5.80;;;;;;;9.57;85.72;99961.56;5084158;28;20848;-76
2021/05/23 05:46:30;;;;;;;6.03;5.63;;;;;;;9.48;85.99;99960.88;5083974;28;20237;-76
2021/05/23 05:48:56;;;;;;;5.10;4.80;;;;;;;9.61;85.83;99964.06;5082540;28;20664;-76
2021/05/23 05:51:22;;;;;;;5.80;5.30;;;;;;;9.74;86.21;99962.91;5083171;28;20285;-76
2021/05/23 05:53:48;;;;;;;5.50;5.00;;;;;;;9.89;85.73;99966.03;5083911;28;20746;-76
2021/05/23 05:56:14;;;;;;;4.83;4.40;;;;;;;10.00;85.51;99965.78;5083943;28;20248;-75
2021/05/23 05:58:41;;;;;;;5.60;5.20;;;;;;;10.07;85.43;99970.81;5083588;28;20234;-76
2021/05/23 06:01:07;;;;;;;5.30;4.97;;;;;;;10.14;85.48;99963.69;5083761;28;20199;-76
2021/05/23 06:03:33;;;;;;;5.47;5.07;;;;;;;10.23;84.88;99966.09;5082681;28;20210;-76
2021/05/23 06:05:59;;;;;;;5.73;5.33;;;;;;;10.25;85.42;99968.66;5083589;28;20256;-77
2021/05/23 06:08:25;;;;;;;5.00;4.70;;;;;;;10.17;84.32;99971.47;5083740;28;20199;-76
2021/05/23 06:10:51;;;;;;;5.30;4.90;;;;;;;10.08;84.92;99969.06;5082948;28;20208;-76
2021/05/23 06:13:17;;;;;;;4.77;4.40;;;;;;;10.19;84.83;99974.88;5083129;28;20208;-76
2021/05/23 06:15:44;;;;;;;5.00;4.60;;;;;;;10.26;85.30;99979.03;5082791;28;20238;-77
2021/05/23 06:18:10;;;;;;;5.30;4.90;;;;;;;10.43;84.31;99980.41;5082967;28;20810;-76
2021/05/23 06:20:36;;;;;;;4.87;4.57;;;;;;;10.49;83.65;99983.69;5082524;28;20311;-77
2021/05/23 06:23:02;;;;;;;5.10;4.77;;;;;;;10.47;83.60;99985.50;5082871;28;21130;-76
2021/05/23 06:25:28;;;;;;;5.63;5.13;;;;;;;10.52;84.15;99990.59;5083411;28;20295;-76
2021/05/23 06:27:54;;;;;;;4.17;3.87;;;;;;;10.56;84.21;99997.44;5083444;28;20685;-76
2021/05/23 06:30:21;;;;;;;4.83;4.43;;;;;;;10.60;84.04;100001.69;5083454;28;20226;-76
2021/05/23 06:32:48;;;;;;;4.87;4.50;;;;;;;10.20;83.70;100005.28;5083298;28;20226;-77
2021/05/23 06:35:14;;;;;;;4.70;4.40;;;;;;;10.21;84.93;100006.13;5082574;28;20621;-76
2021/05/23 06:37:40;;;;;;;5.30;5.00;;;;;;;9.98;84.46;100009.28;5083125;28;20730;-77
2021/05/23 06:40:07;;;;;;;5.37;5.07;;;;;;;9.97;85.54;100008.44;5082597;28;20230;-76
2021/05/23 06:42:33;;;;;;;4.83;4.50;;;;;;;9.97;86.00;100016.25;5082772;28;20204;-76
2021/05/23 06:44:59;;;;;;;4.53;4.13;;;;;;;10.01;85.82;100022.25;5084118;28;20441;-77
2021/05/23 06:47:25;;;;;;;4.27;3.97;;;;;;;10.09;85.36;100021.19;5086618;28;20211;-76
2021/05/23 06:49:52;;;;;;;4.60;4.30;;;;;;;10.19;86.12;100031.38;5086558;28;20282;-76
2021/05/23 06:52:18;;;;;;;4.87;4.30;;;;;;;9.94;86.00;100034.56;5086754;28;20204;-76
2021/05/23 06:54:45;;;;;;;4.43;4.13;;;;;;;10.04;85.99;100043.91;5086275;28;20221;-76
2021/05/23 06:57:10;;;;;;;5.40;5.00;;;;;;;9.95;86.40;100046.72;5086791;28;20254;-76
2021/05/23 06:59:36;;;;;;;5.57;5.23;;;;;;;9.94;86.31;100047.63;5086997;28;20324;-77
2021/05/23 07:02:02;;;;;;;5.63;5.23;;;;;;;10.13;86.33;100041.09;5086637;28;20287;-76
2021/05/23 07:04:28;;;;;;;5.67;5.27;;;;;;;10.07;85.65;100053.41;5086407;28;20215;-77
2021/05/23 07:06:55;;;;;;;5.67;5.20;;;;;;;9.88;86.50;100051.22;5086685;28;20207;-77
2021/05/23 07:09:20;;;;;;;5.37;4.87;;;;;;;9.89;85.75;100044.25;5086713;28;20230;-75
2021/05/23 07:11:46;;;;;;;4.87;4.43;;;;;;;9.88;86.29;100053.81;5086621;28;20203;-76
2021/05/23 07:14:12;;;;;;;4.80;4.40;;;;;;;9.89;86.34;100055.53;5086114;28;20510;-77
2021/05/23 07:16:38;;;;;;;5.40;5.00;;;;;;;9.82;86.56;100050.50;5086269;28;20210;-77
2021/05/23 07:19:04;;;;;;;5.80;5.30;;;;;;;9.94;86.62;100051.06;5086621;28;20651;-77
2021/05/23 07:21:30;;;;;;;4.10;3.70;;;;;;;10.09;85.05;100059.47;5086572;28;20691;-77
2021/05/23 07:23:57;;;;;;;5.20;4.47;;;;;;;10.13;84.01;100058.50;5087209;28;20203;-77
2021/05/23 07:26:23;;;;;;;4.37;3.97;;;;;;;10.10;83.19;100062.00;5087886;28;20208;-77
2021/05/23 07:28:49;;;;;;;4.53;4.23;;;;;;;10.26;83.78;100062.50;5087129;28;20738;-76
2021/05/23 07:31:15;;;;;;;4.57;4.27;;;;;;;10.45;84.04;100055.13;5087514;28;20236;-77
2021/05/23 07:33:41;;;;;;;4.57;4.23;;;;;;;10.51;83.84;100061.97;5086849;28;20204;-77
2021/05/23 07:36:10;;;;;;;5.00;4.67;;;;;;;10.53;83.83;100061.00;5086792;28;20202;-78
2021/05/23 07:38:35;;;;;;;4.57;4.17;;;;;;;10.63;83.35;100071.25;5086846;28;20230;-78
2021/05/23 07:41:04;;;;;;;4.70;4.37;;;;;;;10.60;83.25;100072.16;5087137;28;20207;-77
2021/05/23 07:43:29;;;;;;;4.77;4.37;;;;;;;10.55;82.60;100081.88;5087154;28;20199;-77
2021/05/23 07:45:55;;;;;;;4.73;4.43;;;;;;;10.66;83.23;100078.97;5085895;28;20213;-77
2021/05/23 07:48:22;;;;;;;4.50;4.20;;;;;;;10.80;83.38;100083.84;5085837;28;20302;-77
2021/05/23 07:50:48;;;;;;;4.30;4.00;;;;;;;10.88;82.53;100082.78;5085623;28;20389;-77
2021/05/23 07:53:14;;;;;;;4.10;3.80;;;;;;;10.91;82.75;100089.66;5086481;28;20207;-77
2021/05/23 07:55:40;;;;;;;4.07;3.77;;;;;;;10.82;82.81;100093.38;5086611;28;20557;-77
2021/05/23 07:58:07;;;;;;;4.17;3.97;;;;;;;10.99;83.36;100086.84;5085237;28;20442;-77
2021/05/23 08:00:33;;;;;;;4.37;4.07;;;;;;;11.07;83.52;100088.34;5086459;28;20250;-77
2021/05/23 08:02:59;;;;;;;3.70;3.50;;;;;;;11.13;83.12;100095.16;5084888;28;20210;-77
2021/05/23 08:05:25;;;;;;;4.07;3.77;;;;;;;11.01;82.08;100093.75;5085518;28;20210;-76
2021/05/23 08:07:51;;;;;;;3.90;3.70;;;;;;;11.05;82.33;100097.97;5086416;28;20210;-76
2021/05/23 08:10:18;;;;;;;4.00;3.70;;;;;;;11.06;82.29;100098.81;5085267;28;20237;-77
2021/05/23 08:12:43;;;;;;;3.77;3.47;;;;;;;11.14;82.44;100104.72;5085617;28;20236;-77
2021/05/23 08:15:12;;;;;;;3.80;3.60;;;;;;;11.07;82.24;100109.25;5084950;28;20210;-77
2021/05/23 08:17:38;;;;;;;3.60;3.33;;;;;;;11.06;82.35;100111.88;5085488;28;20233;-76
2021/05/23 08:20:06;;;;;;;3.33;3.13;;;;;;;10.98;82.30;100125.19;5085308;28;20232;-75
2021/05/23 08:22:31;;;;;;;4.60;3.33;;;;;;;11.03;82.04;100130.28;5085345;28;20203;-76
2021/05/23 08:24:57;;;;;;;3.30;3.10;;;;;;;10.99;82.10;100131.25;5085469;28;20205;-76
2021/05/23 08:27:23;;;;;;;3.80;3.50;;;;;;;10.86;82.50;100135.91;5085022;28;20711;-76
2021/05/23 08:29:51;;;;;;;3.20;3.00;;;;;;;10.93;82.82;100135.72;5084874;28;20233;-76
2021/05/23 08:32:19;;;;;;;3.33;3.10;;;;;;;10.41;80.73;100143.97;5085209;28;20200;-76
2021/05/23 08:34:45;;;;;;;3.70;3.50;;;;;;;10.55;82.47;100146.25;5084128;28;21108;-76
2021/05/23 08:37:11;;;;;;;6.07;4.30;;;;;;;10.45;82.53;100141.25;5085334;28;20219;-76
2021/05/23 08:39:36;;;;;;;4.37;4.07;;;;;;;10.55;82.55;100147.09;5084687;28;20490;-76
2021/05/23 08:42:03;;;;;;;4.73;4.23;;;;;;;10.79;84.34;100140.44;5084938;28;20288;-76
2021/05/23 08:44:29;;;;;;;4.57;4.27;;;;;;;10.98;83.56;100146.06;5084964;28;20236;-77
2021/05/23 08:46:54;;;;;;;4.00;3.70;;;;;;;11.08;82.53;100147.53;5084731;28;20284;-77
2021/05/23 08:49:23;;;;;;;3.60;3.40;;;;;;;11.11;81.71;100155.28;5084606;28;20291;-78
2021/05/23 08:51:50;;;;;;;3.97;3.67;;;;;;;10.88;82.58;100155.00;5084194;28;20234;-77
2021/05/23 08:54:17;;;;;;;3.70;3.50;;;;;;;11.03;82.79;100165.06;5084287;28;20308;-77
2021/05/23 08:56:44;;;;;;;3.80;3.50;;;;;;;11.22;82.57;100161.97;5084256;28;20586;-76
2021/05/23 08:59:11;;;;;;;4.17;3.97;;;;;;;11.39;83.23;100148.47;5084730;28;20265;-78
2021/05/23 09:01:38;;;;;;;6.87;3.30;;;;;;;11.07;81.09;100158.03;5085151;28;20209;-77
2021/05/23 09:04:06;;;;;;;3.63;3.43;;;;;;;11.00;82.34;100154.72;5084753;28;20295;-76
2021/05/23 09:06:34;;;;;;;2.93;2.73;;;;;;;11.11;82.50;100163.13;5084756;28;20256;-76
2021/05/23 09:09:03;;;;;;;3.87;3.57;;;;;;;11.15;82.20;100163.91;5083837;28;20217;-77
2021/05/23 09:11:29;;;;;;;3.60;3.40;;;;;;;11.25;82.47;100161.91;5085587;28;20222;-77
2021/05/23 09:13:55;;;;;;;4.53;4.13;;;;;;;11.05;82.34;100171.13;5084886;28;20221;-77
2021/05/23 09:16:21;;;;;;;3.97;3.57;;;;;;;11.18;83.20;100166.44;5084426;28;20201;-77
2021/05/23 09:18:49;;;;;;;3.67;3.37;;;;;;;11.15;82.27;100158.69;5084211;28;20235;-75
2021/05/23 09:21:18;;;;;;;3.60;3.40;;;;;;;11.18;81.57;100174.28;5084307;28;21137;-77
2021/05/23 09:23:48;;;;;;;3.10;2.87;;;;;;;11.17;81.26;100166.47;5084429;28;20206;-77
2021/05/23 09:26:20;;;;;;;3.50;3.30;;;;;;;11.15;81.53;100169.13;5084784;28;20208;-77
2021/05/23 09:28:46;;;;;;;2.90;2.70;;;;;;;11.16;81.18;100180.44;5085096;28;20233;-77
2021/05/23 09:31:14;;;;;;;2.77;2.60;;;;;;;11.07;80.10;100182.38;5083829;28;20567;-77
2021/05/23 09:33:41;;;;;;;2.53;2.33;;;;;;;10.87;79.93;100182.88;5084129;28;20210;-76
2021/05/23 09:36:07;;;;;;;2.30;2.20;;;;;;;11.03;80.16;100185.13;5084435;28;20207;-77
2021/05/23 09:38:33;;;;;;;2.63;2.43;;;;;;;10.92;79.78;100195.81;5083715;28;20289;-76
2021/05/23 09:41:17;;;;;;;2.43;2.13;;;;;;;11.19;81.14;100190.81;5084803;28;20211;-78
2021/05/23 09:43:43;;;;;;;2.87;2.77;;;;;;;11.21;81.35;100189.03;5083378;28;21164;-77
2021/05/23 09:46:09;;;;;;;2.37;2.27;;;;;;;11.33;81.35;100191.31;5083779;28;20212;-77
2021/05/23 09:48:35;;;;;;;2.50;2.40;;;;;;;11.45;80.74;100192.75;5082849;28;20205;-77
2021/05/23 09:51:12;;;;;;;2.50;2.40;;;;;;;11.19;80.28;100209.94;5083692;28;20209;-77
2021/05/23 09:53:39;;;;;;;2.60;2.50;;;;;;;11.12;81.01;100208.41;5082978;28;20212;-78
2021/05/23 09:56:07;;;;;;;2.43;2.33;;;;;;;10.72;81.68;100219.78;5084104;28;20205;-78
2021/05/23 09:58:36;;;;;;;3.13;2.93;;;;;;;10.80;81.31;100220.50;5083579;28;20225;-78
2021/05/23 10:01:03;;;;;;;4.90;4.50;;;;;;;10.82;82.33;100215.22;5083873;28;20257;-78
2021/05/23 10:03:30;;;;;;;3.23;3.03;;;;;;;10.97;82.99;100220.06;5082637;28;20204;-77
2021/05/23 10:05:57;;;;;;;2.90;2.70;;;;;;;11.19;82.96;100224.78;5083176;28;20254;-77
2021/05/23 10:08:23;;;;;;;2.10;2.00;;;;;;;11.31;83.13;100230.53;5083475;28;20206;-78
2021/05/23 10:10:50;;;;;;;2.63;2.20;;;;;;;11.43;81.94;100225.91;5083302;28;20242;-76
2021/05/23 10:13:17;;;;;;;1.97;1.77;;;;;;;11.38;81.42;100231.25;5083701;28;20249;-77
2021/05/23 10:15:43;;;;;;;1.73;1.50;;;;;;;11.42;80.71;100230.28;5083684;28;20209;-77
2021/05/23 10:18:10;;;;;;;0.97;0.97;;;;;;;11.36;80.14;100232.16;5084036;28;20237;-78
2021/05/23 10:20:37;;;;;;;0.90;0.90;;;;;;;11.19;78.03;100237.84;5084297;28;20256;-79
2021/05/23 10:23:10;;;;;;;1.10;1.10;;;;;;;11.17;78.85;100237.88;5083031;28;20722;-74
2021/05/23 10:25:38;;;;;;;1.17;1.17;;;;;;;11.18;79.20;100243.94;5083326;28;20209;-76
2021/05/23 10:28:05;;;;;;;1.40;1.30;;;;;;;11.04;78.58;100250.38;5083435;28;20858;-75
2021/05/23 10:30:32;;;;;;;1.50;1.50;;;;;;;11.12;80.27;100256.28;5083696;28;20235;-76
2021/05/23 10:33:09;;;;;;;1.10;1.10;;;;;;;10.97;79.59;100261.84;5083569;28;20422;-76
2021/05/23 10:35:35;;;;;;;1.37;1.27;;;;;;;11.07;80.73;100259.91;5082661;28;20258;-75
2021/05/23 10:38:08;;;;;;;1.37;1.37;;;;;;;11.15;81.26;100259.72;5083490;28;20224;-76
2021/05/23 10:40:35;;;;;;;2.00;1.90;;;;;;;11.23;81.76;100273.44;5083732;28;20233;-77
2021/05/23 10:43:02;;;;;;;1.30;1.30;;;;;;;11.00;79.46;100263.53;5083796;28;20264;-78
2021/05/23 10:45:29;;;;;;;1.07;1.07;;;;;;;11.16;80.40;100270.13;5083417;28;20629;-78
2021/05/23 10:47:57;;;;;;;1.27;1.23;;;;;;;11.21;80.94;100268.25;5084122;28;20210;-76
2021/05/23 10:50:33;;;;;;;1.40;1.30;;;;;;;10.97;79.14;100274.06;5082178;28;20229;-76
2021/05/23 10:52:59;;;;;;;1.57;1.47;;;;;;;11.05;79.94;100270.38;5082753;28;20245;-76
2021/05/23 10:55:25;;;;;;;1.20;1.20;;;;;;;11.06;80.26;100269.50;5083317;28;20202;-76
2021/05/23 10:57:54;;;;;;;2.17;1.33;;;;;;;11.06;81.14;100266.88;5082096;28;20221;-76
2021/05/23 11:00:22;;;;;;;1.23;1.20;;;;;;;11.05;80.25;100266.91;5082574;28;20226;-77
2021/05/23 11:02:48;;;;;;;1.10;1.10;;;;;;;11.25;81.21;100267.28;5083039;28;20704;-77
2021/05/23 11:05:17;;;;;;;1.00;1.00;;;;;;;11.46;81.09;100263.28;5082462;28;20205;-77
2021/05/23 11:07:54;;;;;;;1.17;1.17;;;;;;;11.75;79.76;100261.66;5083232;28;20197;-76
2021/05/23 11:10:22;;;;;;;0.90;0.90;;;;;;;11.87;78.03;100265.69;5082616;28;20225;-77
2021/05/23 11:12:49;;;;;;;0.77;0.77;;;;;;;11.76;77.14;100267.75;5083057;28;20597;-76
2021/05/23 11:15:15;;;;;;;1.50;1.23;;;;;;;11.87;78.06;100266.56;5082156;28;20218;-76
2021/05/23 11:17:41;;;;;;;3.00;2.53;;;;;;;11.90;77.17;100278.72;5083313;28;20229;-77
2021/05/23 11:20:18;;;;;;;2.67;2.03;;;;;;;12.22;78.62;100279.59;5083376;28;20278;-77
2021/05/23 11:22:46;;;;;;;1.07;1.03;;;;;;;12.51;78.74;100284.00;5082948;28;20757;-77
2021/05/23 11:25:14;;;;;;;1.73;1.63;;;;;;;11.94;76.98;100284.75;5083261;28;20206;-77
2021/05/23 11:27:39;;;;;;;1.53;1.43;;;;;;;11.73;78.93;100294.81;5082234;28;20260;-77
2021/05/23 11:30:10;;;;;;;1.87;1.77;;;;;;;11.51;79.66;100292.75;5083753;28;20231;-77
2021/05/23 11:32:36;;;;;;;2.40;2.20;;;;;;;11.39;79.59;100303.53;5086445;28;20237;-76